Time;durP1;ratioP1;P1;durP2;ratioP2;P2;SDS_P1;SDS_P2;PMS_P1;PMS_P2;Temp;Humidity;BMP_temperature;BMP_pressure;BME280_temperature;BME280_humidity;BME280_pressure;Samples;Min_cycle;Max_cycle;Signal;HPM_P1;HPM_P2
2023/08/07 00:01:51;;;;;;;4.10;1.30;;;10.60;99.90;;;;;;5073772;28;20205;-68
2023/08/07 00:04:17;;;;;;;2.30;1.07;;;10.60;99.90;;;;;;5071389;28;20184;-68
2023/08/07 00:06:42;;;;;;;3.00;1.33;;;10.50;99.90;;;;;;5085123;28;20219;-68
2023/08/07 00:09:08;;;;;;;2.50;0.80;;;10.50;99.90;;;;;;5083350;28;20180;-68
2023/08/07 00:11:34;;;;;;;1.77;0.73;;;10.50;99.90;;;;;;5079057;28;20239;-68
2023/08/07 00:14:00;;;;;;;3.43;1.03;;;10.60;99.90;;;;;;5061195;28;20177;-68
2023/08/07 00:16:26;;;;;;;13.40;1.20;;;10.50;99.90;;;;;;5075567;28;20177;-68
2023/08/07 00:18:55;;;;;;;2.27;1.37;;;10.50;99.90;;;;;;5070863;28;20486;-68
2023/08/07 00:21:22;;;;;;;1.87;0.60;;;10.40;99.90;;;;;;5075453;28;20261;-68
2023/08/07 00:23:47;;;;;;;3.00;1.50;;;10.40;99.90;;;;;;5080243;28;20420;-68
2023/08/07 00:26:13;;;;;;;1.90;1.10;;;10.40;99.90;;;;;;5070424;28;20438;-68
2023/08/07 00:28:38;;;;;;;8.30;1.67;;;10.40;99.90;;;;;;5071100;28;20573;-68
2023/08/07 00:31:04;;;;;;;2.60;1.30;;;10.40;99.90;;;;;;5079068;28;20168;-68
2023/08/07 00:33:29;;;;;;;1.50;0.90;;;10.40;99.90;;;;;;5085229;28;20510;-68
2023/08/07 00:35:55;;;;;;;4.13;1.07;;;10.40;99.90;;;;;;5093265;28;20193;-68
2023/08/07 00:38:20;;;;;;;1.50;0.90;;;10.40;99.90;;;;;;5106315;28;20741;-68
2023/08/07 00:40:46;;;;;;;5.60;0.93;;;10.40;99.90;;;;;;5075982;28;20181;-68
2023/08/07 00:43:12;;;;;;;5.77;0.90;;;10.40;99.90;;;;;;5098158;28;20756;-68
2023/08/07 00:45:45;;;;;;;2.73;1.13;;;10.50;99.90;;;;;;5073980;28;20184;-68
2023/08/07 00:48:12;;;;;;;1.53;0.73;;;10.50;99.90;;;;;;5070996;28;20212;-67
2023/08/07 00:50:40;;;;;;;2.47;0.77;;;10.50;99.90;;;;;;5070952;28;20548;-68
2023/08/07 00:53:06;;;;;;;2.60;1.00;;;10.40;99.90;;;;;;5074495;28;20422;-68
2023/08/07 00:55:32;;;;;;;2.23;0.90;;;10.40;99.90;;;;;;5097430;28;20426;-68
2023/08/07 00:57:59;;;;;;;1.87;0.90;;;10.40;99.90;;;;;;5105892;28;20466;-68
2023/08/07 01:00:26;;;;;;;1.60;0.80;;;10.40;99.90;;;;;;5071750;28;20204;-68
2023/08/07 01:02:53;;;;;;;1.50;0.70;;;10.30;99.90;;;;;;5101091;28;20413;-68
2023/08/07 01:05:20;;;;;;;2.27;0.90;;;10.30;99.90;;;;;;5077148;28;20993;-68
2023/08/07 01:07:47;;;;;;;1.67;0.93;;;10.30;99.90;;;;;;5078359;28;20481;-68
2023/08/07 01:10:14;;;;;;;1.80;1.10;;;10.30;99.90;;;;;;5075062;28;20578;-68
2023/08/07 01:12:51;;;;;;;3.00;1.03;;;10.40;99.90;;;;;;5078631;28;20782;-68
2023/08/07 01:15:24;;;;;;;2.43;1.10;;;10.40;99.90;;;;;;5097537;28;20470;-68
2023/08/07 01:17:52;;;;;;;2.17;0.90;;;10.30;99.90;;;;;;5097463;28;20404;-68
2023/08/07 01:20:18;;;;;;;2.37;1.10;;;10.30;99.90;;;;;;5083521;28;20430;-68
2023/08/07 01:22:43;;;;;;;2.03;0.80;;;10.20;99.90;;;;;;5088155;28;20415;-68
2023/08/07 01:25:09;;;;;;;1.87;1.03;;;10.20;99.90;;;;;;5092060;28;20407;-68
2023/08/07 01:28:02;;;;;;;1.87;0.80;;;10.20;99.90;;;;;;5084257;28;20210;-68
2023/08/07 01:30:40;;;;;;;2.00;1.07;;;10.20;99.90;;;;;;5083547;28;20537;-68
2023/08/07 01:33:27;;;;;;;3.00;1.17;;;10.20;99.90;;;;;;5090815;28;21253;-69
2023/08/07 01:35:57;;;;;;;2.87;1.43;;;10.20;99.90;;;;;;5055575;28;20437;-69
2023/08/07 01:38:25;;;;;;;2.33;1.30;;;10.20;99.90;;;;;;5070526;28;20422;-69
2023/08/07 01:40:52;;;;;;;1.73;0.80;;;10.30;99.90;;;;;;5084345;28;20417;-69
2023/08/07 01:43:19;;;;;;;1.60;0.77;;;10.30;99.90;;;;;;5081296;28;20445;-69
2023/08/07 01:45:45;;;;;;;2.73;1.40;;;10.30;99.90;;;;;;5082738;28;20484;-69
2023/08/07 01:48:11;;;;;;;3.20;0.90;;;10.50;99.90;;;;;;5083137;28;20447;-67
2023/08/07 01:50:38;;;;;;;7.73;1.53;;;10.50;99.90;;;;;;5083551;28;20468;-67
2023/08/07 01:53:04;;;;;;;2.00;1.00;;;10.50;99.90;;;;;;5102580;28;20421;-67
2023/08/07 01:55:30;;;;;;;1.70;0.83;;;10.40;99.90;;;;;;5075660;28;20420;-67
2023/08/07 01:57:56;;;;;;;1.50;0.87;;;10.40;99.90;;;;;;5084706;28;20176;-67
2023/08/07 02:00:21;;;;;;;2.13;1.00;;;10.50;99.90;;;;;;5076714;28;20222;-67
2023/08/07 02:02:48;;;;;;;2.37;0.97;;;10.50;99.90;;;;;;5084463;28;20578;-67
2023/08/07 02:05:14;;;;;;;2.30;1.10;;;10.50;99.90;;;;;;5075842;28;20181;-68
2023/08/07 02:07:40;;;;;;;2.73;1.13;;;10.60;99.90;;;;;;5082528;28;21003;-68
2023/08/07 02:10:06;;;;;;;8.97;1.43;;;10.70;99.90;;;;;;5087217;28;20415;-68
2023/08/07 02:12:32;;;;;;;2.90;1.10;;;10.70;99.90;;;;;;5073551;28;20465;-68
2023/08/07 02:15:01;;;;;;;1.97;1.13;;;10.70;99.90;;;;;;5075600;28;20188;-68
2023/08/07 02:17:38;;;;;;;3.10;1.13;;;10.70;99.90;;;;;;5089687;28;20622;-68
2023/08/07 02:20:05;;;;;;;3.37;0.93;;;10.70;99.90;;;;;;5094075;28;20406;-68
2023/08/07 02:22:30;;;;;;;1.87;1.13;;;10.70;99.90;;;;;;5080352;28;20419;-68
2023/08/07 02:24:56;;;;;;;2.07;1.10;;;10.70;99.90;;;;;;5093440;28;20414;-68
2023/08/07 02:27:22;;;;;;;3.10;0.80;;;10.80;99.90;;;;;;5092930;28;20192;-68
2023/08/07 02:29:47;;;;;;;4.47;0.80;;;10.80;99.90;;;;;;5073577;28;20204;-68
2023/08/07 02:32:13;;;;;;;3.00;1.17;;;10.80;99.90;;;;;;5072374;28;20200;-68
2023/08/07 02:34:38;;;;;;;5.03;1.53;;;10.80;99.90;;;;;;5081460;28;20188;-68
2023/08/07 02:37:04;;;;;;;1.53;0.80;;;10.90;99.90;;;;;;5073075;28;20666;-68
2023/08/07 02:39:30;;;;;;;8.33;1.40;;;10.90;99.90;;;;;;5083299;28;20185;-68
2023/08/07 02:41:55;;;;;;;4.23;1.23;;;10.90;99.90;;;;;;5106567;28;20180;-68
2023/08/07 02:44:21;;;;;;;5.33;1.03;;;11.20;99.90;;;;;;5097826;28;20541;-68
2023/08/07 02:46:47;;;;;;;3.63;1.50;;;11.00;99.90;;;;;;5100597;28;20297;-68
2023/08/07 02:49:12;;;;;;;5.10;1.20;;;11.20;99.90;;;;;;5074628;28;20188;-68
2023/08/07 02:51:38;;;;;;;1.50;0.80;;;11.00;99.90;;;;;;5079227;28;20534;-68
2023/08/07 02:54:03;;;;;;;4.60;0.80;;;11.00;99.90;;;;;;5078937;28;20185;-68
2023/08/07 02:56:29;;;;;;;3.30;1.07;;;11.00;99.90;;;;;;5083386;28;20176;-68
2023/08/07 02:58:58;;;;;;;4.30;1.13;;;11.00;99.90;;;;;;5081962;28;20177;-68
2023/08/07 03:01:23;;;;;;;1.83;0.90;;;11.00;99.90;;;;;;5072474;28;20423;-69
2023/08/07 03:03:49;;;;;;;8.30;1.20;;;11.00;99.90;;;;;;5075116;28;20929;-69
2023/08/07 03:06:14;;;;;;;3.90;0.83;;;11.40;99.90;;;;;;5077208;28;20189;-68
2023/08/07 03:08:40;;;;;;;1.77;0.90;;;11.00;99.90;;;;;;5072102;28;20655;-68
2023/08/07 03:11:06;;;;;;;1.40;0.80;;;11.00;99.90;;;;;;5072643;28;20173;-68
2023/08/07 03:13:31;;;;;;;1.60;0.90;;;11.00;99.90;;;;;;5091251;28;20622;-68
2023/08/07 03:16:05;;;;;;;2.83;1.23;;;11.00;99.90;;;;;;5079271;28;20244;-68
2023/08/07 03:18:31;;;;;;;2.80;0.87;;;10.90;99.90;;;;;;5071868;28;20545;-68
2023/08/07 03:20:57;;;;;;;6.10;1.20;;;10.90;99.90;;;;;;5083004;28;20509;-68
2023/08/07 03:23:23;;;;;;;1.80;1.00;;;10.90;99.90;;;;;;5101668;28;20508;-68
2023/08/07 03:25:49;;;;;;;2.73;1.00;;;11.00;99.90;;;;;;5085417;28;20430;-68
2023/08/07 03:28:16;;;;;;;8.10;1.77;;;11.00;99.90;;;;;;5099082;28;20466;-68
2023/08/07 03:30:42;;;;;;;5.27;1.20;;;10.90;99.90;;;;;;5078808;28;20458;-68
2023/08/07 03:33:07;;;;;;;5.30;0.90;;;10.80;99.90;;;;;;5079177;28;20415;-69
2023/08/07 03:35:33;;;;;;;3.60;1.20;;;10.80;99.90;;;;;;5076572;28;20446;-69
2023/08/07 03:37:59;;;;;;;5.00;1.20;;;10.70;99.90;;;;;;5071910;28;20176;-69
2023/08/07 03:40:24;;;;;;;5.80;1.57;;;11.30;99.90;;;;;;5071962;28;20632;-69
2023/08/07 03:42:50;;;;;;;1.60;0.70;;;10.70;99.90;;;;;;5071609;28;20185;-69
2023/08/07 03:45:16;;;;;;;7.63;1.30;;;11.00;99.90;;;;;;5071932;28;20546;-69
2023/08/07 03:47:41;;;;;;;2.63;1.30;;;10.70;99.90;;;;;;5084841;28;20205;-69
2023/08/07 03:50:07;;;;;;;5.67;1.33;;;11.20;99.90;;;;;;5085603;28;20180;-69
2023/08/07 03:52:33;;;;;;;2.30;0.97;;;10.70;99.90;;;;;;5071843;28;20265;-69
2023/08/07 03:54:58;;;;;;;3.80;1.13;;;10.70;99.90;;;;;;5092603;28;20179;-69
2023/08/07 03:57:25;;;;;;;6.63;0.90;;;10.70;99.90;;;;;;5098035;28;20183;-69
2023/08/07 03:59:50;;;;;;;2.37;1.43;;;10.60;99.90;;;;;;5098521;28;20187;-69
2023/08/07 04:02:16;;;;;;;6.93;1.67;;;10.50;99.90;;;;;;5102324;28;20426;-69
2023/08/07 04:04:41;;;;;;;3.10;1.50;;;10.50;99.90;;;;;;5098410;28;20181;-69
2023/08/07 04:07:07;;;;;;;2.40;1.10;;;10.60;99.90;;;;;;5086906;28;20252;-69
2023/08/07 04:09:33;;;;;;;4.23;1.70;;;10.60;99.90;;;;;;5100318;28;20239;-69
2023/08/07 04:11:59;;;;;;;8.20;0.97;;;10.70;99.90;;;;;;5097862;28;20426;-69
2023/08/07 04:14:25;;;;;;;3.90;1.20;;;10.90;99.90;;;;;;5077929;28;20606;-69
2023/08/07 04:16:51;;;;;;;2.30;1.23;;;10.60;99.90;;;;;;5089981;28;20176;-69
2023/08/07 04:19:16;;;;;;;3.57;1.23;;;11.00;99.90;;;;;;5102432;28;20417;-69
2023/08/07 04:21:42;;;;;;;3.83;0.90;;;10.50;99.90;;;;;;5093058;28;20185;-69
2023/08/07 04:24:10;;;;;;;1.90;0.73;;;10.50;99.90;;;;;;5097160;28;20176;-69
2023/08/07 04:26:39;;;;;;;3.37;1.27;;;10.40;99.90;;;;;;5070181;28;20177;-69
2023/08/07 04:29:05;;;;;;;3.00;0.97;;;10.30;99.90;;;;;;5085563;28;20434;-69
2023/08/07 04:31:31;;;;;;;4.80;1.50;;;10.80;99.90;;;;;;5083318;28;20430;-69
2023/08/07 04:33:58;;;;;;;4.00;1.47;;;10.30;99.90;;;;;;5075451;28;20419;-69
2023/08/07 04:36:24;;;;;;;2.00;1.30;;;10.90;99.90;;;;;;5071149;28;20659;-69
2023/08/07 04:38:50;;;;;;;2.37;1.17;;;10.30;99.90;;;;;;5078078;28;20461;-69
2023/08/07 04:41:15;;;;;;;2.27;1.10;;;10.20;99.90;;;;;;5083639;28;20189;-69
2023/08/07 04:43:42;;;;;;;3.57;1.17;;;10.30;99.90;;;;;;5052442;28;20427;-69
2023/08/07 04:46:09;;;;;;;2.97;1.40;;;10.50;99.90;;;;;;5071077;28;20212;-69
2023/08/07 04:48:38;;;;;;;7.93;2.13;;;10.30;99.90;;;;;;5070667;28;20515;-69
2023/08/07 04:51:03;;;;;;;1.97;1.20;;;11.00;99.90;;;;;;5071102;28;20465;-69
2023/08/07 04:53:29;;;;;;;4.00;1.17;;;10.40;99.90;;;;;;5084864;28;20426;-69
2023/08/07 04:55:54;;;;;;;8.43;1.07;;;10.30;99.90;;;;;;5083696;28;20663;-69
2023/08/07 04:58:20;;;;;;;2.07;1.00;;;11.10;99.90;;;;;;5070282;28;20189;-69
2023/08/07 05:00:46;;;;;;;6.97;1.37;;;10.30;99.90;;;;;;5078373;28;20208;-69
2023/08/07 05:03:12;;;;;;;3.50;0.90;;;10.30;99.90;;;;;;5076237;28;20215;-69
2023/08/07 05:05:38;;;;;;;9.17;1.47;;;10.40;99.90;;;;;;5091343;28;20422;-69
2023/08/07 05:08:03;;;;;;;3.77;1.47;;;10.30;99.90;;;;;;5088099;28;20563;-69
2023/08/07 05:10:29;;;;;;;3.77;1.57;;;10.50;99.90;;;;;;5100356;28;20201;-69
2023/08/07 05:12:55;;;;;;;2.93;1.10;;;10.30;99.90;;;;;;5099109;28;20517;-69
2023/08/07 05:15:25;;;;;;;1.77;0.80;;;10.40;99.90;;;;;;5092791;28;20285;-69
2023/08/07 05:17:51;;;;;;;1.37;0.70;;;10.50;99.90;;;;;;5071837;28;20431;-69
2023/08/07 05:20:17;;;;;;;3.73;1.53;;;10.40;99.90;;;;;;5082740;28;20422;-69
2023/08/07 05:22:43;;;;;;;2.07;1.10;;;10.40;99.90;;;;;;5086084;28;20421;-69
2023/08/07 05:25:09;;;;;;;4.60;1.27;;;10.40;99.90;;;;;;5093110;28;20180;-69
2023/08/07 05:27:35;;;;;;;2.03;0.80;;;10.60;99.90;;;;;;5087378;28;20446;-69
2023/08/07 05:30:01;;;;;;;6.60;1.27;;;10.50;99.90;;;;;;5104870;28;20191;-69
2023/08/07 05:32:28;;;;;;;2.80;1.20;;;10.60;99.90;;;;;;5096454;28;20414;-69
2023/08/07 05:34:53;;;;;;;2.80;1.30;;;10.70;99.90;;;;;;5098068;28;20505;-69
2023/08/07 05:37:19;;;;;;;1.90;0.90;;;11.40;99.90;;;;;;5081588;28;21049;-69
2023/08/07 05:39:44;;;;;;;1.30;0.63;;;10.90;99.90;;;;;;5083012;28;20690;-68
2023/08/07 05:42:10;;;;;;;4.90;1.47;;;11.10;99.90;;;;;;5094052;28;20188;-69
2023/08/07 05:44:37;;;;;;;2.17;1.00;;;11.20;99.90;;;;;;5084473;28;20232;-67
2023/08/07 05:47:03;;;;;;;4.37;1.37;;;11.60;99.90;;;;;;5073275;28;20536;-69
2023/08/07 05:49:28;;;;;;;2.60;0.90;;;11.40;99.90;;;;;;5095264;28;20583;-69
2023/08/07 05:51:54;;;;;;;1.70;0.90;;;12.30;99.90;;;;;;5096179;28;20181;-69
2023/08/07 05:54:19;;;;;;;2.23;0.93;;;11.60;99.90;;;;;;5094955;28;20259;-69
2023/08/07 05:56:45;;;;;;;2.00;0.83;;;11.60;99.90;;;;;;5087535;28;20181;-69
2023/08/07 05:59:11;;;;;;;2.43;1.13;;;11.60;99.90;;;;;;5080651;28;20200;-69
2023/08/07 06:01:36;;;;;;;2.57;1.00;;;11.60;99.90;;;;;;5080279;28;20276;-69
2023/08/07 06:04:02;;;;;;;2.33;1.27;;;12.60;99.90;;;;;;5100165;28;20179;-69
2023/08/07 06:06:28;;;;;;;1.97;1.00;;;11.80;99.90;;;;;;5095259;28;20246;-69
2023/08/07 06:08:55;;;;;;;2.40;0.80;;;11.80;99.90;;;;;;5083699;28;20224;-69
2023/08/07 06:11:21;;;;;;;2.10;1.20;;;12.90;99.90;;;;;;5082667;28;20631;-69
2023/08/07 06:13:46;;;;;;;2.80;1.00;;;11.80;99.90;;;;;;5082526;28;20471;-69
2023/08/07 06:16:12;;;;;;;1.53;1.00;;;11.70;99.90;;;;;;5103089;28;20180;-69
2023/08/07 06:18:37;;;;;;;3.60;1.87;;;12.90;99.90;;;;;;5094698;28;20194;-69
2023/08/07 06:21:06;;;;;;;3.60;1.27;;;12.00;99.90;;;;;;5099708;28;20529;-69
2023/08/07 06:23:35;;;;;;;4.33;1.43;;;12.30;99.90;;;;;;5076693;28;20313;-69
2023/08/07 06:26:04;;;;;;;2.97;1.10;;;12.00;99.90;;;;;;5084605;28;20426;-69
2023/08/07 06:28:30;;;;;;;2.33;1.27;;;12.00;99.90;;;;;;5104683;28;20468;-69
2023/08/07 06:31:09;;;;;;;2.90;1.07;;;12.20;99.90;;;;;;5093298;28;20457;-69
2023/08/07 06:33:36;;;;;;;2.27;1.00;;;12.00;99.90;;;;;;5093813;28;20434;-69
2023/08/07 06:36:03;;;;;;;3.67;1.00;;;12.00;99.90;;;;;;5084395;28;20831;-69
2023/08/07 06:38:29;;;;;;;2.33;1.00;;;12.10;99.90;;;;;;5100373;28;20911;-69
2023/08/07 06:40:55;;;;;;;2.40;1.00;;;12.20;99.90;;;;;;5105547;28;20433;-69
2023/08/07 06:43:21;;;;;;;4.27;1.30;;;12.20;99.90;;;;;;5086499;28;20670;-69
2023/08/07 06:45:49;;;;;;;3.63;1.03;;;12.20;99.90;;;;;;5106082;28;20195;-69
2023/08/07 06:48:15;;;;;;;5.27;1.23;;;12.40;99.90;;;;;;5091067;28;20573;-69
2023/08/07 06:50:41;;;;;;;3.77;1.27;;;12.30;99.90;;;;;;5093139;28;20414;-69
2023/08/07 06:53:06;;;;;;;2.97;1.30;;;12.40;99.90;;;;;;5092634;28;20212;-69
2023/08/07 06:55:33;;;;;;;2.90;1.30;;;12.40;99.90;;;;;;5073081;28;20187;-69
2023/08/07 06:57:58;;;;;;;1.57;0.80;;;12.60;99.90;;;;;;5093373;28;20194;-69
2023/08/07 07:00:24;;;;;;;1.87;1.10;;;12.70;99.90;;;;;;5097404;28;20430;-69
2023/08/07 07:02:50;;;;;;;6.70;2.00;;;12.70;99.90;;;;;;5100629;28;20207;-69
2023/08/07 07:05:15;;;;;;;1.63;0.97;;;12.70;99.90;;;;;;5095206;28;20245;-69
2023/08/07 07:07:41;;;;;;;2.07;0.93;;;12.80;99.90;;;;;;5101726;28;20207;-69
2023/08/07 07:10:08;;;;;;;1.90;0.80;;;12.70;99.90;;;;;;5082977;28;20524;-69
2023/08/07 07:12:33;;;;;;;2.43;1.20;;;12.70;99.90;;;;;;5089362;28;20181;-69
2023/08/07 07:14:59;;;;;;;2.63;1.10;;;12.70;99.90;;;;;;5073217;28;20477;-69
2023/08/07 07:17:24;;;;;;;2.50;0.87;;;12.70;99.90;;;;;;5075748;28;20181;-69
2023/08/07 07:19:50;;;;;;;3.33;1.47;;;12.90;99.90;;;;;;5086382;28;20197;-69
2023/08/07 07:22:16;;;;;;;1.93;1.20;;;12.90;99.90;;;;;;5101600;28;20188;-69
2023/08/07 07:24:41;;;;;;;2.23;1.27;;;13.20;99.90;;;;;;5096054;28;20654;-68
2023/08/07 07:27:07;;;;;;;4.50;1.23;;;13.50;99.90;;;;;;5097896;28;20858;-69
2023/08/07 07:29:32;;;;;;;3.20;1.13;;;13.80;99.90;;;;;;5101176;28;20676;-69
2023/08/07 07:31:59;;;;;;;5.40;1.33;;;14.10;99.90;;;;;;5088484;28;20209;-69
2023/08/07 07:34:25;;;;;;;3.50;1.67;;;14.40;99.90;;;;;;5081043;28;20188;-69
2023/08/07 07:36:50;;;;;;;8.97;2.83;;;14.40;99.90;;;;;;5092322;28;20434;-69
2023/08/07 07:39:17;;;;;;;2.50;0.83;;;14.10;99.90;;;;;;5095392;28;20176;-69
2023/08/07 07:41:42;;;;;;;3.43;0.83;;;14.50;99.90;;;;;;5106268;28;20179;-69
2023/08/07 07:44:08;;;;;;;2.10;1.00;;;14.80;99.90;;;;;;5087102;28;20769;-69
2023/08/07 07:46:34;;;;;;;3.10;1.23;;;14.70;99.90;;;;;;5102520;28;20184;-69
2023/08/07 07:49:00;;;;;;;2.20;1.07;;;14.90;99.90;;;;;;5090736;28;20618;-69
2023/08/07 07:51:26;;;;;;;4.07;1.03;;;15.60;99.90;;;;;;5095583;28;20191;-69
2023/08/07 07:53:53;;;;;;;3.10;0.87;;;16.30;99.50;;;;;;5090192;28;20414;-70
2023/08/07 07:56:18;;;;;;;3.50;1.00;;;15.90;98.20;;;;;;5098872;28;20192;-69
2023/08/07 07:58:44;;;;;;;2.83;1.43;;;16.20;97.90;;;;;;5087634;28;20442;-70
2023/08/07 08:01:10;;;;;;;2.17;1.30;;;16.80;96.30;;;;;;5072022;28;20235;-69
2023/08/07 08:03:35;;;;;;;1.90;1.00;;;16.60;95.80;;;;;;5070679;28;20188;-69
2023/08/07 08:06:01;;;;;;;9.40;1.20;;;16.90;96.00;;;;;;5082210;28;20230;-69
2023/08/07 08:08:27;;;;;;;2.10;0.90;;;17.00;95.50;;;;;;5083373;28;20539;-70
2023/08/07 08:10:52;;;;;;;1.87;0.77;;;17.50;94.60;;;;;;5081645;28;20189;-69
2023/08/07 08:13:18;;;;;;;2.27;0.80;;;18.20;93.60;;;;;;5076144;28;20229;-69
2023/08/07 08:15:45;;;;;;;2.20;0.90;;;18.40;92.20;;;;;;5101595;28;20522;-69
2023/08/07 08:18:11;;;;;;;1.73;0.80;;;18.20;92.80;;;;;;5094298;28;20255;-70
2023/08/07 08:20:39;;;;;;;1.37;0.60;;;18.20;93.20;;;;;;5079839;28;20427;-69
2023/08/07 08:23:05;;;;;;;2.73;1.00;;;18.10;92.70;;;;;;5079972;28;20486;-70
2023/08/07 08:25:32;;;;;;;2.80;0.90;;;18.50;92.50;;;;;;5092659;28;20909;-70
2023/08/07 08:27:59;;;;;;;1.73;0.90;;;18.70;92.20;;;;;;5099559;28;20348;-70
2023/08/07 08:30:24;;;;;;;2.80;1.30;;;18.60;90.70;;;;;;5082170;28;20526;-69
2023/08/07 08:32:50;;;;;;;2.70;1.00;;;17.80;91.40;;;;;;5098374;28;20497;-69
2023/08/07 08:35:16;;;;;;;1.73;0.70;;;17.40;91.60;;;;;;5081288;28;20193;-69
2023/08/07 08:37:41;;;;;;;1.60;0.80;;;16.70;91.80;;;;;;5090159;28;20285;-69
2023/08/07 08:40:11;;;;;;;1.93;0.80;;;17.10;91.40;;;;;;5079013;28;20642;-69
2023/08/07 08:42:40;;;;;;;1.40;0.60;;;17.30;90.20;;;;;;5084649;28;20181;-69
2023/08/07 08:45:10;;;;;;;3.53;1.10;;;18.00;92.10;;;;;;5085304;28;20486;-69
2023/08/07 08:47:38;;;;;;;1.73;0.63;;;18.60;90.50;;;;;;5091862;28;20471;-69
2023/08/07 08:50:09;;;;;;;2.27;1.00;;;19.00;89.10;;;;;;5092445;28;20494;-69
2023/08/07 08:52:38;;;;;;;2.57;1.00;;;18.20;89.00;;;;;;5092316;28;20857;-70
2023/08/07 08:55:04;;;;;;;2.40;1.07;;;17.20;90.40;;;;;;5093048;28;20423;-70
2023/08/07 08:57:30;;;;;;;1.43;0.67;;;17.30;90.30;;;;;;5101471;28;20428;-70
2023/08/07 08:59:59;;;;;;;1.70;0.93;;;17.50;89.70;;;;;;5101114;28;20185;-69
2023/08/07 09:02:26;;;;;;;1.57;0.70;;;17.90;89.10;;;;;;5085699;28;20449;-69
2023/08/07 09:04:51;;;;;;;8.30;1.00;;;18.20;86.60;;;;;;5083380;28;20419;-69
2023/08/07 09:07:19;;;;;;;1.47;0.70;;;17.50;86.60;;;;;;5094982;28;20549;-69
2023/08/07 09:09:47;;;;;;;2.20;0.67;;;17.20;85.80;;;;;;5095833;28;20218;-69
2023/08/07 09:12:20;;;;;;;1.80;0.60;;;17.50;84.30;;;;;;5092085;28;20426;-69
2023/08/07 09:14:52;;;;;;;1.67;0.87;;;18.00;86.10;;;;;;5078896;28;21040;-69
2023/08/07 09:17:19;;;;;;;2.67;0.77;;;18.30;84.80;;;;;;5086125;28;20515;-69
2023/08/07 09:19:44;;;;;;;1.50;0.60;;;19.00;85.80;;;;;;5096736;28;20952;-68
2023/08/07 09:22:10;;;;;;;1.63;0.80;;;18.70;85.60;;;;;;5091513;28;20513;-69
2023/08/07 09:24:36;;;;;;;3.80;1.20;;;17.90;86.00;;;;;;5103763;28;20184;-69
2023/08/07 09:27:02;;;;;;;1.90;1.10;;;17.30;89.70;;;;;;5096016;28;20180;-68
2023/08/07 09:29:28;;;;;;;3.20;1.07;;;16.90;90.20;;;;;;5099829;28;20434;-68
2023/08/07 09:31:54;;;;;;;3.10;0.87;;;17.00;90.50;;;;;;5092642;28;20196;-68
2023/08/07 09:34:20;;;;;;;5.23;0.90;;;17.40;91.00;;;;;;5102910;28;20836;-68
2023/08/07 09:36:46;;;;;;;1.60;0.53;;;17.80;88.70;;;;;;5102593;28;20456;-68
2023/08/07 09:39:12;;;;;;;2.07;0.63;;;17.50;88.40;;;;;;5094607;28;20425;-68
2023/08/07 09:41:37;;;;;;;4.53;0.80;;;17.40;90.20;;;;;;5086871;28;20608;-69
2023/08/07 09:44:08;;;;;;;1.40;0.50;;;17.00;89.40;;;;;;5101382;28;20266;-68
2023/08/07 09:46:42;;;;;;;2.23;1.00;;;16.80;90.50;;;;;;5102211;28;20180;-68
2023/08/07 09:49:07;;;;;;;2.20;0.80;;;16.80;90.20;;;;;;5081037;28;20468;-68
2023/08/07 09:51:47;;;;;;;1.47;0.60;;;16.70;91.00;;;;;;5091856;28;20516;-68
2023/08/07 09:54:13;;;;;;;4.80;1.03;;;16.50;90.70;;;;;;5084142;28;20185;-68
2023/08/07 09:56:40;;;;;;;2.80;0.87;;;16.60;90.60;;;;;;5092898;28;20453;-68
2023/08/07 09:59:06;;;;;;;1.97;1.00;;;16.50;91.40;;;;;;5104682;28;20418;-69
2023/08/07 10:01:32;;;;;;;3.10;0.83;;;16.30;91.00;;;;;;5095021;28;20528;-68
2023/08/07 10:03:58;;;;;;;2.43;0.90;;;16.20;91.90;;;;;;5101909;28;20828;-70
2023/08/07 10:06:24;;;;;;;1.83;0.80;;;16.30;92.40;;;;;;5078094;28;20522;-69
2023/08/07 10:08:51;;;;;;;1.40;0.60;;;16.60;91.50;;;;;;5103264;28;20204;-68
2023/08/07 10:11:17;;;;;;;2.43;0.80;;;16.40;91.00;;;;;;5098541;28;20432;-70
2023/08/07 10:13:43;;;;;;;3.10;0.93;;;16.30;91.70;;;;;;5094179;28;20442;-66
2023/08/07 10:16:09;;;;;;;8.90;3.60;;;16.20;92.00;;;;;;5084158;28;20432;-67
2023/08/07 10:18:36;;;;;;;2.40;0.97;;;15.90;91.90;;;;;;5091683;28;20437;-67
2023/08/07 10:21:03;;;;;;;2.87;0.57;;;16.00;92.50;;;;;;5093838;28;20518;-67
2023/08/07 10:23:30;;;;;;;2.00;0.80;;;16.00;92.10;;;;;;5103049;28;20417;-67
2023/08/07 10:25:57;;;;;;;3.00;1.07;;;16.20;92.70;;;;;;5092477;28;20433;-66
2023/08/07 10:28:25;;;;;;;2.23;1.20;;;16.50;92.20;;;;;;5087992;28;20498;-65
2023/08/07 10:30:51;;;;;;;3.20;1.00;;;16.60;91.70;;;;;;5102874;28;20983;-68
2023/08/07 10:33:20;;;;;;;17.93;0.80;;;16.70;91.40;;;;;;5094959;28;20439;-64
2023/08/07 10:35:48;;;;;;;1.73;0.77;;;17.00;91.10;;;;;;5091041;28;20778;-71
2023/08/07 10:38:14;;;;;;;1.80;0.80;;;17.00;90.50;;;;;;5096582;28;20775;-68
2023/08/07 10:41:01;;;;;;;1.77;1.00;;;16.70;90.80;;;;;;5094520;28;20503;-68
2023/08/07 10:43:28;;;;;;;1.73;0.80;;;17.00;91.50;;;;;;5085854;28;20419;-68
2023/08/07 10:46:05;;;;;;;2.13;0.90;;;17.30;91.00;;;;;;5087283;28;20426;-68
2023/08/07 10:48:47;;;;;;;2.20;0.90;;;17.40;91.60;;;;;;5076371;28;20475;-68
2023/08/07 10:51:14;;;;;;;1.30;0.60;;;17.30;90.30;;;;;;5087308;28;20402;-69
2023/08/07 10:53:45;;;;;;;2.10;1.00;;;16.80;90.80;;;;;;5097736;28;20411;-66
2023/08/07 10:56:15;;;;;;;1.50;0.80;;;16.60;91.50;;;;;;5088726;28;20414;-68
2023/08/07 10:58:42;;;;;;;1.87;1.00;;;16.30;92.20;;;;;;5095084;28;20447;-67
2023/08/07 11:01:27;;;;;;;2.20;1.10;;;16.40;91.60;;;;;;5098556;28;20799;-67
2023/08/07 11:03:55;;;;;;;3.30;1.10;;;16.50;91.30;;;;;;5094790;28;20535;-67
2023/08/07 11:06:40;;;;;;;3.07;1.37;;;16.40;92.30;;;;;;5101377;28;20424;-67
2023/08/07 11:09:08;;;;;;;2.87;1.00;;;16.40;92.30;;;;;;5088772;28;20476;-67
2023/08/07 11:11:43;;;;;;;1.70;0.73;;;16.70;91.60;;;;;;5099080;28;20407;-66
2023/08/07 11:14:11;;;;;;;3.00;1.37;;;16.50;91.50;;;;;;5078642;28;20435;-66
2023/08/07 11:16:37;;;;;;;1.80;1.10;;;16.50;91.40;;;;;;5093317;28;20422;-67
2023/08/07 11:19:04;;;;;;;2.70;0.90;;;16.60;92.60;;;;;;5083412;28;20478;-65
2023/08/07 11:21:31;;;;;;;1.97;0.80;;;16.60;91.10;;;;;;5088632;28;20909;-65
2023/08/07 11:23:57;;;;;;;1.70;0.70;;;16.80;91.40;;;;;;5098066;28;20414;-65
2023/08/07 11:26:24;;;;;;;2.17;1.00;;;17.00;91.50;;;;;;5091441;28;20438;-65
2023/08/07 11:28:50;;;;;;;9.23;1.13;;;17.10;90.70;;;;;;5083858;28;20227;-65
2023/08/07 11:31:18;;;;;;;2.23;1.10;;;17.40;90.80;;;;;;5080683;28;20431;-65
2023/08/07 11:33:43;;;;;;;2.27;0.97;;;17.20;91.00;;;;;;5081483;28;20415;-65
2023/08/07 11:36:13;;;;;;;3.57;1.17;;;17.20;91.80;;;;;;5090440;28;20438;-65
2023/08/07 11:38:42;;;;;;;8.73;0.87;;;17.10;91.80;;;;;;5084346;28;20196;-65
2023/08/07 11:41:09;;;;;;;1.60;0.80;;;17.50;90.50;;;;;;5081522;28;20415;-65
2023/08/07 11:43:35;;;;;;;2.50;1.20;;;17.20;90.00;;;;;;5093258;28;20483;-65
2023/08/07 11:46:03;;;;;;;1.70;0.70;;;17.00;91.70;;;;;;5090700;28;20419;-65
2023/08/07 11:48:30;;;;;;;3.10;1.27;;;16.80;90.30;;;;;;5076726;28;20546;-65
2023/08/07 11:50:57;;;;;;;2.73;1.00;;;16.60;91.70;;;;;;5071142;28;20418;-65
2023/08/07 11:53:25;;;;;;;2.40;0.90;;;16.50;91.00;;;;;;5071779;28;20415;-65
2023/08/07 11:55:59;;;;;;;2.37;0.83;;;16.20;92.00;;;;;;5083106;28;20446;-65
2023/08/07 11:58:27;;;;;;;2.23;1.00;;;16.10;92.00;;;;;;5100038;28;20417;-65
2023/08/07 12:00:53;;;;;;;7.60;0.90;;;15.90;92.40;;;;;;5099524;28;20509;-65
2023/08/07 12:03:33;;;;;;;1.60;0.70;;;15.80;92.70;;;;;;5087050;28;21221;-65
2023/08/07 12:06:01;;;;;;;2.00;0.90;;;15.70;92.40;;;;;;5089324;28;20426;-65
2023/08/07 12:08:38;;;;;;;1.83;0.80;;;15.60;92.40;;;;;;5098670;28;20462;-65
2023/08/07 12:11:12;;;;;;;1.40;0.73;;;15.50;92.10;;;;;;5086756;28;20843;-65
2023/08/07 12:13:45;;;;;;;1.60;0.73;;;15.40;93.10;;;;;;5090581;28;20450;-65
2023/08/07 12:16:15;;;;;;;2.40;1.10;;;15.40;93.30;;;;;;5078980;28;20439;-65
2023/08/07 12:18:48;;;;;;;1.97;1.07;;;15.40;93.20;;;;;;5079973;28;20510;-65
2023/08/07 12:21:20;;;;;;;1.57;0.80;;;15.30;93.40;;;;;;5074048;28;20518;-65
2023/08/07 12:23:49;;;;;;;6.80;1.10;;;15.20;94.70;;;;;;5080710;28;20855;-65
2023/08/07 12:26:15;;;;;;;2.50;1.03;;;15.20;94.40;;;;;;5086637;28;20429;-65
2023/08/07 12:28:41;;;;;;;3.93;0.87;;;15.30;94.10;;;;;;5102075;28;20465;-65
2023/08/07 12:31:07;;;;;;;3.43;0.73;;;15.20;93.20;;;;;;5091263;28;20450;-65
2023/08/07 12:33:33;;;;;;;2.17;0.80;;;15.40;93.80;;;;;;5090053;28;20556;-65
2023/08/07 12:36:00;;;;;;;1.80;0.80;;;15.60;94.00;;;;;;5092173;28;20249;-65
2023/08/07 12:38:26;;;;;;;1.60;0.93;;;15.80;93.40;;;;;;5084416;28;20422;-65
2023/08/07 12:40:52;;;;;;;2.40;0.90;;;16.00;94.00;;;;;;5095169;28;20906;-65
2023/08/07 12:43:17;;;;;;;2.20;0.87;;;16.10;93.00;;;;;;5087100;28;20473;-65
2023/08/07 12:45:43;;;;;;;4.10;0.90;;;16.10;93.60;;;;;;5084227;28;20184;-65
2023/08/07 12:48:09;;;;;;;4.83;1.13;;;15.90;93.90;;;;;;5070098;28;20220;-65